Seraing, Belgium
Current Conditions -  °F | °C
As of 2:20 AM on Saturday 20 Dec 2014 (Local Time) from EBLG Reporting Station
Clear Clear  
Wind Chill: 31°   Ceiling: Unl
Heat Index: 39°   Visibility: 6mi
Dew Point: 34°   Wind: 14mph
Humidity: 81%   Direction: 240°WSW
Pressure: 30.21"   Gusts: NA
Location:  50.59°N, 5.52°E
Report Text: EBLG 200120Z 24012KT CAVOK 04/01 Q1023 NOSIG
Loading
Personal Weather Stations






























Interactive Weather Map New forecast layout! Learn more

10-Day Weather Forecast

Advertisements
Track Severe Weather on mobile